NEODyS-2

Near Earth Objects - Dynamic Site
NEODyS ∴ Observatories ∴ Site 691 ∴ Obs & residuals
Contact »
691  ▹ 
OBSERVATIONS AND RESIDUALS

691-Steward Observatory, Kitt Peak-Spacewatch

Detections | Residuals | Detections & Residuals

[1-200] [201-400] [401-600] [601-800] [801-1000] [1001-1200] [1201-1400] [1401-1600] [1601-1800] [1801-2000] [2001-2200] [2201-2400] [2401-2600] [2601-2800] [2801-3000] [3001-3200] [3201-3400] [3401-3600] [3601-3800] [3801-4000] [4001-4200] [4201-4400] [4401-4600] [4601-4800] [4801-5000] [5001-5200] [5201-5400] [5401-5600] [5601-5800] [5801-6000] [6001-6200] [6201-6400] [6401-6600] [6601-6800] [6801-7000] [7001-7200] [7201-7400] [7401-7600] [7601-7800] [7801-8000] [8001-8200] [8201-8400] [8401-8600] [8601-8800] [8801-9000] [9001-9200] [9201-9400] [9401-9600] [9601-9800] [9801-10000] [10001-10200] [10201-10400] [10401-10600] [10601-10800] [10801-11000] [11001-11200] [11201-11400] [11401-11600] [11601-11800] [11801-12000] [12001-12200] [12201-12400] [12401-12600] [12601-12800] [12801-13000] [13001-13200] [13201-13400] [13401-13600] [13601-13800] [13801-14000] [14001-14200] [14201-14400] [14401-14600] [14601-14800] [14801-15000] [15001-15200] [15201-15400] [15401-15600] [15601-15800] [15801-16000] [16001-16200] [16201-16400] [16401-16600] [16601-16800] [16801-17000] [17001-17200] [17201-17400] [17401-17600] [17601-17800] [17801-18000] [18001-18200] [18201-18400] [18401-18600] [18601-18800] [18801-19000] [19001-19200] [19201-19400] [19401-19600] [19601-19800] [19801-20000] [20001-20200] [20201-20400] [20401-20600] [20601-20800] [20801-21000] [21001-21200] [21201-21400] [21401-21600] [21601-21800] [21801-22000] [22001-22200] [22201-22400] [22401-22600] [22601-22800] [22801-23000] [23001-23200] [23201-23400] [23401-23600] [23601-23800] [23801-24000] [24001-24200] [24201-24400] [24401-24600] [24601-24800] [24801-25000] [25001-25200] [25201-25400] [25401-25600] [25601-25800] [25801-26000] [26001-26200] [26201-26400] [26401-26600] [26601-26800] [26801-27000] [27001-27200] [27201-27400] [27401-27600] [27601-27800] [27801-28000] [28001-28200] [28201-28400] [28401-28600] [28601-28800] [28801-29000] [29001-29200] [29201-29400] [29401-29600] [29601-29800] [29801-30000] [30001-30200] [30201-30400] [30401-30600] [30601-30800] [30801-31000] [31001-31200] [31201-31400] [31401-31600] [31601-31800] [31801-32000] [32001-32200] [32201-32400] [32401-32600] [32601-32800] [32801-33000] [33001-33200] [33201-33400] [33401-33600] [33601-33800] [33801-34000] [34001-34200] [34201-34400] [34401-34600] [34601-34800] [34801-35000] [35001-35200] [35201-35400] [35401-35600] [35601-35800] [35801-36000] [36001-36200] [36201-36400] [36401-36600] [36601-36800] [36801-37000] [37001-37200] [37201-37400] [37401-37600] [37601-37800] [37801-38000] [38001-38200] [38201-38400] [38401-38600] [38601-38800] [38801-39000] [39001-39200] [39201-39400] [39401-39600] [39601-39800] [39801-40000] [40001-40200] [40201-40400] [40401-40600] [40601-40800] [40801-41000] [41001-41200] [41201-41400] [41401-41600] [41601-41800] [41801-42000] [42001-42200] [42201-42400] [42401-42600] [42601-42800] [42801-43000] [43001-43200] [43201-43400] [43401-43600] [43601-43800] [43801-44000] [44001-44200] [44201-44400] [44401-44600] [44601-44800] [44801-45000] [45001-45200] [45201-45400] [45401-45600] [45601-45800] [45801-46000] [46001-46200] [46201-46400] [46401-46600] [46601-46800] [46801-47000] [47001-47200] [47201-47400] [47401-47600] [47601-47800] [47801-48000] [48001-48200] [48201-48400] [48401-48600] [48601-48800] [48801-49000] [49001-49200] [49201-49400] [49401-49600] [49601-49800] [49801-50000] [50001-50200] [50201-50400] [50401-50600] [50601-50741]

Designation T Tech N Date Right Ascension Declination Apparent Magnitude Star Catalog Site code χ Used A Used M
yr-mo-day precision hr:min:sec precision rms F bias residual deg min sec precision rms F bias residual mag/col rms residual
2001MZ7 O C 2016-11-23.41840 1.000E-05 05:03:01.760 1.500E-01 0.500 F -0.214 -0.007 -28° 17' 30.80" 1.000E-01 0.500 F 0.106 -0.052 17.0 V 0.70 0.24 o 691 0.11 Yes Yes
2012WK4 O C 2016-11-23.42337 1.000E-05 05:01:20.660 1.500E-01 0.500 F -0.076 -0.217 +01° 43' 58.80" 1.000E-01 0.500 F 0.195 0.087 19.9 V 0.70 -0.08 o 691 0.47 Yes Yes
2001MZ7 O C 2016-11-23.42802 1.000E-05 05:03:01.060 1.500E-01 0.500 F -0.214 -0.096 -28° 17' 33.60" 1.000E-01 0.500 F 0.106 -0.028 17.1 V 0.70 0.34 o 691 0.20 Yes Yes
2012WK4 O C 2016-11-23.43299 1.000E-05 05:01:18.750 1.500E-01 0.500 F -0.076 0.089 +01° 44' 03.30" 1.000E-01 0.500 F 0.195 -0.159 20.0 V 0.70 0.02 o 691 0.37 Yes Yes
2001MZ7 O C 2016-11-23.43764 1.000E-05 05:03:00.370 1.500E-01 0.500 F -0.214 -0.067 -28° 17' 36.40" 1.000E-01 0.500 F 0.106 -0.021 17.1 V 0.70 0.34 o 691 0.14 Yes Yes
2011LL2 O C 2016-11-23.44827 1.000E-05 07:14:30.230 1.500E-01 0.500 F -0.059 -0.073 +28° 49' 07.30" 1.000E-01 0.500 F 0.162 0.457 19.4 V 0.70 -0.05 o 691 0.93 Yes Yes
2011LL2 O C 2016-11-23.46237 1.000E-05 07:14:30.000 1.500E-01 0.500 F -0.059 -0.061 +28° 50' 07.30" 1.000E-01 0.500 F 0.162 -0.441 19.3 V 0.70 -0.15 o 691 0.90 Yes Yes
2011LL2 O C 2016-11-23.47674 1.000E-05 07:14:29.760 1.500E-01 0.500 F -0.059 -0.136 +28° 51' 09.30" 1.000E-01 0.500 F 0.162 -0.440 19.5 V 0.70 0.05 o 691 0.93 Yes Yes
2007CA19 O C H 2016-11-24.11430 1.000E-05 22:11:37.550 1.500E-01 0.500 F -0.135 -0.283 -19° 06' 36.50" 1.000E-01 0.500 F 0.096 0.281 19.9 V 0.70 0.32 o 691 0.80 Yes Yes
2007CA19 O C H 2016-11-24.12184 1.000E-05 22:11:40.100 1.500E-01 0.500 F -0.135 -0.237 -19° 06' 25.00" 1.000E-01 0.500 F 0.096 -0.014 20.1 V 0.70 0.52 o 691 0.48 Yes Yes
2007CA19 O C H 2016-11-24.12938 1.000E-05 22:11:42.660 1.500E-01 0.500 F -0.135 -0.047 -19° 06' 13.20" 1.000E-01 0.500 F 0.096 -0.014 20.0 V 0.70 0.42 o 691 0.10 Yes Yes
2016SH45 O C H 2016-11-24.13699 1.000E-05 23:26:36.080 1.500E-01 0.500 F -0.169 -0.094 -24° 11' 29.50" 1.000E-01 0.500 F 0.448 -0.852 20.6 V 0.70 0.34 o 691 1.73 Yes Yes
2012RG3 O C 2016-11-24.13932 1.000E-05 23:32:22.770 1.500E-01 0.500 F -0.184 -0.908 -27° 12' 31.90" 1.000E-01 0.500 F 0.420 0.370 o 691 1.96 Yes No
2004QD14 O C H 2016-11-24.14162 1.000E-05 23:38:11.330 1.500E-01 0.500 F -0.234 -0.399 -14° 23' 35.30" 1.000E-01 0.500 F 0.306 0.177 20.2 V 0.70 -0.01 o 691 0.88 Yes Yes
2016SH45 O C H 2016-11-24.14624 1.000E-05 23:26:38.370 1.500E-01 0.500 F -0.169 -0.117 -24° 11' 05.80" 1.000E-01 0.500 F 0.448 0.624 20.6 V 0.70 0.34 o 691 1.28 Yes Yes
2012RG3 O C 2016-11-24.14853 1.000E-05 23:32:22.850 1.500E-01 0.500 F -0.184 0.203 -27° 12' 25.80" 1.000E-01 0.500 F 0.420 0.188 o 691 0.55 Yes No
2004QD14 O C H 2016-11-24.15084 1.000E-05 23:38:10.380 1.500E-01 0.500 F -0.234 -0.231 -14° 23' 26.50" 1.000E-01 0.500 F 0.306 0.083 20.4 V 0.70 0.19 o 691 0.49 Yes Yes
2016SH45 O C H 2016-11-24.15549 1.000E-05 23:26:40.720 1.500E-01 0.500 F -0.169 0.673 -24° 10' 43.20" 1.000E-01 0.500 F 0.448 0.978 20.7 V 0.70 0.44 o 691 2.41 Yes Yes
2012RG3 O C 2016-11-24.15800 1.000E-05 23:32:22.830 1.500E-01 0.500 F -0.184 -0.027 -27° 12' 19.10" 1.000E-01 0.500 F 0.420 0.419 o 691 0.84 Yes No
2004QD14 O C H 2016-11-24.16030 1.000E-05 23:38:09.430 1.500E-01 0.500 F -0.234 0.276 -14° 23' 17.90" 1.000E-01 0.500 F 0.306 -0.464 20.5 V 0.70 0.29 o 691 1.09 Yes Yes
2003WR21 O C 2016-11-24.19805 1.000E-05 02:04:24.780 1.500E-01 0.500 F -0.353 0.064 -06° 05' 42.40" 1.000E-01 0.500 F 0.167 -0.093 o 691 0.23 Yes No
2016TE93 O C 2016-11-24.20046 1.000E-05 02:29:24.290 1.500E-01 0.500 F -0.404 -0.867 -26° 19' 54.30" 1.000E-01 0.500 F 0.418 0.137 o 691 1.78 Yes No
2003WR21 O C 2016-11-24.20762 1.000E-05 02:04:23.300 1.500E-01 0.500 F -0.353 -0.434 -06° 05' 35.90" 1.000E-01 0.500 F 0.167 0.087 o 691 0.89 Yes No
2016TE93 O C 2016-11-24.21003 1.000E-05 02:29:23.290 1.500E-01 0.500 F -0.404 0.000 -26° 20' 20.70" 1.000E-01 0.500 F 0.418 0.094 o 691 0.20 Yes No
2003WR21 O C 2016-11-24.21719 1.000E-05 02:04:21.860 1.500E-01 0.500 F -0.353 -0.336 -06° 05' 29.70" 1.000E-01 0.500 F 0.167 -0.045 o 691 0.68 Yes No
2016TE93 O C 2016-11-24.21959 1.000E-05 02:29:22.210 1.500E-01 0.500 F -0.404 -0.214 -26° 20' 47.20" 1.000E-01 0.500 F 0.418 -0.132 o 691 0.51 Yes No
2016LB9 O C H 2016-11-24.26290 1.000E-05 02:59:26.610 1.500E-01 0.500 F -0.334 0.055 -14° 56' 04.60" 1.000E-01 0.500 F 0.075 -0.253 20.7 V 0.70 -0.16 o 691 0.53 Yes Yes
2016TC93 O C H 2016-11-24.26775 1.000E-05 03:07:16.730 1.500E-01 0.500 F -0.352 -0.032 -05° 49' 47.80" 1.000E-01 0.500 F 0.318 -0.752 21.6 V 0.70 0.29 o 691 1.57 Yes Yes
2016TC93 O C H 2016-11-24.28015 1.000E-05 03:07:17.800 1.500E-01 0.500 F -0.352 0.427 -05° 49' 56.40" 1.000E-01 0.500 F 0.318 -0.541 21.3 V 0.70 -0.01 o 691 1.43 Yes Yes
2016LB9 O C H 2016-11-24.28769 1.000E-05 02:59:26.710 1.500E-01 0.500 F -0.334 0.197 -14° 55' 08.70" 1.000E-01 0.500 F 0.075 0.406 20.7 V 0.70 -0.16 o 691 0.93 Yes Yes
2016TC93 O C H 2016-11-24.29254 1.000E-05 03:07:18.870 1.500E-01 0.500 F -0.352 0.881 -05° 50' 05.20" 1.000E-01 0.500 F 0.318 -0.567 21.4 V 0.70 0.09 o 691 2.17 Yes Yes
2016WS3 O C 2016-11-24.30469 1.000E-05 04:18:49.610 1.500E-01 0.500 F -0.104 -1.014 +09° 21' 24.90" 1.000E-01 0.500 F 0.241 1.162 20.7 V 0.70 0.21 o 691 3.14 Yes Yes
2016WJ1 O C 2016-11-24.30931 1.000E-05 04:18:01.520 1.500E-01 0.500 F -0.165 0.042 +15° 16' 39.80" 1.000E-01 0.500 F 0.297 0.000 o 691 0.08 Yes No
2016WS3 O C 2016-11-24.31901 1.000E-05 04:18:46.860 1.500E-01 0.500 F -0.104 -0.469 +09° 22' 09.00" 1.000E-01 0.500 F 0.241 -0.194 20.6 V 0.70 0.11 o 691 1.04 Yes Yes
2016WJ1 O C 2016-11-24.32364 1.000E-05 04:17:58.660 1.500E-01 0.500 F -0.165 -0.427 +15° 16' 32.30" 1.000E-01 0.500 F 0.297 -0.289 o 691 1.03 Yes No
2016WS3 O C 2016-11-24.33332 1.000E-05 04:18:44.120 1.500E-01 0.500 F -0.104 0.177 +09° 22' 54.30" 1.000E-01 0.500 F 0.241 -0.273 21.1 V 0.70 0.61 o 691 0.66 Yes Yes
2016WJ1 O C 2016-11-24.33797 1.000E-05 04:17:55.850 1.500E-01 0.500 F -0.165 -0.141 +15° 16' 25.20" 1.000E-01 0.500 F 0.297 -0.083 o 691 0.33 Yes No
2012KJ11 O C H 2016-11-25.08880 1.000E-05 20:08:30.390 1.500E-01 0.500 F 0.022 0.617 -00° 26' 36.40" 1.000E-01 0.500 F 0.167 -0.549 19.3 V 0.70 0.20 o 691 1.66 Yes Yes
2004SB56 O C H 2016-11-25.09108 1.000E-05 20:32:05.230 1.500E-01 0.500 F -0.036 -0.141 +11° 31' 08.50" 1.000E-01 0.500 F 0.289 -0.425 21.0 V 0.70 0.21 o 691 0.91 Yes Yes
2012KJ11 O C H 2016-11-25.09651 1.000E-05 20:08:32.330 1.500E-01 0.500 F 0.022 0.275 -00° 26' 14.10" 1.000E-01 0.500 F 0.167 -0.452 19.6 V 0.70 0.50 o 691 1.07 Yes Yes
2004SB56 O C H 2016-11-25.09880 1.000E-05 20:32:06.490 1.500E-01 0.500 F -0.036 0.765 +11° 31' 11.00" 1.000E-01 0.500 F 0.289 -0.754 o 691 2.21 Yes No
2012KJ11 O C H 2016-11-25.10422 1.000E-05 20:08:34.280 1.500E-01 0.500 F 0.022 0.075 -00° 25' 51.70" 1.000E-01 0.500 F 0.167 -0.253 17.1 V 0.70 -2.00 o 691 0.54 Yes No
2004SB56 O C H 2016-11-25.10651 1.000E-05 20:32:07.650 1.500E-01 0.500 F -0.036 0.207 +11° 31' 15.30" 1.000E-01 0.500 F 0.289 0.725 o 691 1.53 Yes No
2007CA19 O C H 2016-11-25.11516 1.000E-05 22:17:13.450 1.500E-01 0.500 F -0.213 0.496 -18° 40' 42.00" 1.000E-01 0.500 F 0.041 -0.503 19.0 V 0.70 -0.62 o 691 1.42 Yes Yes
2016WY8 O C H 2016-11-25.11767 1.000E-05 22:35:17.800 1.500E-01 0.500 F -0.051 0.891 +17° 35' 28.20" 1.000E-01 0.500 F 0.271 -0.541 o 691 2.11 Yes No
2016WJ8 O C H 2016-11-25.11962 1.000E-05 21:43:48.110 1.500E-01 0.500 F 0.007 -0.652 +14° 10' 07.30" 1.000E-01 0.500 F 0.195 0.468 20.8 V 0.70 0.17 o 691 1.62 Yes Yes
2007CA19 O C H 2016-11-25.12253 1.000E-05 22:17:15.830 1.500E-01 0.500 F -0.213 0.179 -18° 40' 30.50" 1.000E-01 0.500 F 0.041 -0.474 19.0 V 0.70 -0.62 o 691 1.02 Yes Yes
2016WY8 O C H 2016-11-25.12505 1.000E-05 22:35:18.660 1.500E-01 0.500 F -0.051 0.382 +17° 36' 31.40" 1.000E-01 0.500 F 0.271 0.060 o 691 0.78 Yes No
2016WJ8 O C H 2016-11-25.12702 1.000E-05 21:43:49.940 1.500E-01 0.500 F 0.007 -0.786 +14° 10' 08.00" 1.000E-01 0.500 F 0.195 0.022 21.0 V 0.70 0.37 o 691 1.58 Yes Yes
2007CA19 O C H 2016-11-25.12989 1.000E-05 22:17:18.240 1.500E-01 0.500 F -0.213 0.336 -18° 40' 19.00" 1.000E-01 0.500 F 0.041 -0.434 19.6 V 0.70 -0.02 o 691 1.10 Yes Yes
2016WY8 O C H 2016-11-25.13241 1.000E-05 22:35:19.550 1.500E-01 0.500 F -0.051 0.298 +17° 37' 34.30" 1.000E-01 0.500 F 0.271 0.565 o 691 1.30 Yes No
2016WJ8 O C H 2016-11-25.13437 1.000E-05 21:43:51.870 1.500E-01 0.500 F 0.007 0.708 +14° 10' 09.30" 1.000E-01 0.500 F 0.195 0.187 21.1 V 0.70 0.47 o 691 1.48 Yes Yes
2012UA34 O C H 2016-11-25.14672 1.000E-05 23:04:33.780 1.500E-01 0.500 F -0.087 0.002 +19° 52' 22.30" 1.000E-01 0.500 F 0.224 -0.313 20.4 V 0.70 0.02 o 691 0.63 Yes Yes
2016UB42 O C H 2016-11-25.14956 1.000E-05 23:09:59.520 1.500E-01 0.500 F 0.052 0.028 +30° 27' 36.20" 1.000E-01 0.500 F 0.297 -0.947 21.6 V 0.70 0.50 o 691 1.90 Yes Yes
2012UA34 O C H 2016-11-25.15697 1.000E-05 23:04:35.060 1.500E-01 0.500 F -0.087 -0.018 +19° 52' 15.70" 1.000E-01 0.500 F 0.224 -0.125 20.3 V 0.70 -0.09 o 691 0.25 Yes Yes
2016UB42 O C H 2016-11-25.15973 1.000E-05 23:09:59.330 1.500E-01 0.500 F 0.052 -0.495 +30° 28' 01.80" 1.000E-01 0.500 F 0.297 -0.644 21.3 V 0.70 0.20 o 691 1.63 Yes Yes
2012UA34 O C H 2016-11-25.16709 1.000E-05 23:04:36.310 1.500E-01 0.500 F -0.087 -0.251 +19° 52' 08.90" 1.000E-01 0.500 F 0.224 -0.209 20.2 V 0.70 -0.19 o 691 0.65 Yes Yes
2016UB42 O C H 2016-11-25.16979 1.000E-05 23:09:59.200 1.500E-01 0.500 F 0.052 -0.299 +30° 28' 26.70" 1.000E-01 0.500 F 0.297 -0.727 21.3 V 0.70 0.20 o 691 1.58 Yes Yes
2016VF3 O C m 2016-11-25.19270 1.000E-05 00:35:54.210 1.500E-01 0.500 F -0.189 0.000 +00° 42' 42.20" 1.000E-01 0.500 F 0.303 0.220 22.0 V 0.70 0.35 o 691 0.47 Yes Yes
2016VF3 O C m 2016-11-25.20195 1.000E-05 00:35:55.200 1.500E-01 0.500 F -0.189 0.691 +00° 43' 16.10" 1.000E-01 0.500 F 0.303 0.618 21.6 V 0.70 -0.05 o 691 2.02 Yes Yes
2016VN2 O C m 2016-11-25.20657 1.000E-05 01:50:53.410 1.500E-01 0.500 F -0.352 0.033 -14° 39' 07.50" 1.000E-01 0.500 F 0.216 0.925 20.8 V 0.70 -0.37 o 691 2.03 Yes Yes
2016LX48 O C H 2016-11-25.21174 1.000E-05 01:51:33.160 1.500E-01 0.500 F -0.134 -0.087 +26° 46' 47.20" 1.000E-01 0.500 F 0.292 -0.196 20.1 V 0.70 -0.04 o 691 0.43 Yes Yes
2016VN2 O C m 2016-11-25.21508 1.000E-05 01:50:55.750 1.500E-01 0.500 F -0.352 -0.370 -14° 40' 15.30" 1.000E-01 0.500 F 0.216 0.409 21.2 V 0.70 0.03 o 691 1.21 Yes Yes
2016LX48 O C H 2016-11-25.22015 1.000E-05 01:51:33.520 1.500E-01 0.500 F -0.134 -0.156 +26° 46' 42.90" 1.000E-01 0.500 F 0.292 -0.058 20.1 V 0.70 -0.04 o 691 0.33 Yes Yes
2016VN2 O C m 2016-11-25.22360 1.000E-05 01:50:58.110 1.500E-01 0.500 F -0.352 -0.544 -14° 41' 22.30" 1.000E-01 0.500 F 0.216 0.732 20.6 V 0.70 -0.57 o 691 2.00 Yes Yes
2016LX48 O C H 2016-11-25.22876 1.000E-05 01:51:33.900 1.500E-01 0.500 F -0.134 -0.076 +26° 46' 38.20" 1.000E-01 0.500 F 0.292 -0.199 20.3 V 0.70 0.16 o 691 0.43 Yes Yes
2016UM41 O C H 2016-11-25.23445 1.000E-05 00:41:57.990 1.500E-01 0.500 F -0.202 0.111 +14° 27' 56.70" 1.000E-01 0.500 F 0.293 -0.815 o 691 1.72 Yes No
2016UM41 O C H 2016-11-25.24034 1.000E-05 00:41:57.940 1.500E-01 0.500 F -0.202 -0.209 +14° 27' 52.60" 1.000E-01 0.500 F 0.293 0.316 21.2 V 0.70 -0.32 o 691 0.80 Yes Yes
2016UM41 O C H 2016-11-25.24623 1.000E-05 00:41:57.890 1.500E-01 0.500 F -0.202 -0.538 +14° 27' 47.60" 1.000E-01 0.500 F 0.293 0.551 21.5 V 0.70 -0.02 o 691 1.62 Yes Yes
2016LY47 O C H 2016-11-25.25399 1.000E-05 01:50:58.370 1.500E-01 0.500 F -0.229 0.433 +16° 00' 10.30" 1.000E-01 0.500 F 0.256 -0.458 21.0 V 0.70 -0.15 o 691 1.27 Yes Yes
2016WG1 O C m 2016-11-25.25764 1.000E-05 02:03:27.130 1.500E-01 0.500 F -0.161 0.015 +26° 22' 47.30" 1.000E-01 0.500 F 0.241 -0.363 21.7 V 0.70 -0.01 o 691 0.75 Yes Yes
2016UN36 O C H 2016-11-25.26069 1.000E-05 02:07:04.000 1.500E-01 0.500 F -0.107 0.346 +30° 33' 54.70" 1.000E-01 0.500 F 0.210 -0.753 19.4 V 0.70 -0.05 o 691 1.67 Yes Yes
2016UP41 O C H 2016-11-25.26343 1.000E-05 02:35:56.350 1.500E-01 0.500 F -0.358 0.261 +20° 02' 50.50" 1.000E-01 0.500 F 0.309 0.242 20.6 V 0.70 0.06 o 691 0.73 Yes Yes
2006UM O C 2016-11-25.26343 1.000E-05 02:37:53.490 1.500E-01 0.500 F -0.358 -0.214 +19° 44' 20.60" 1.000E-01 0.500 F 0.309 0.046 16.4 V 0.70 -0.02 o 691 0.44 Yes Yes
2016LY47 O C H 2016-11-25.26608 1.000E-05 01:50:58.600 1.500E-01 0.500 F -0.229 0.191 +16° 00' 06.20" 1.000E-01 0.500 F 0.256 0.343 21.0 V 0.70 -0.15 o 691 0.79 Yes Yes
2016WG1 O C m 2016-11-25.26969 1.000E-05 02:03:28.880 1.500E-01 0.500 F -0.161 0.220 +26° 22' 30.40" 1.000E-01 0.500 F 0.241 0.022 21.5 V 0.70 -0.21 o 691 0.46 Yes Yes
2016UN36 O C H 2016-11-25.27276 1.000E-05 02:07:09.150 1.500E-01 0.500 F -0.168 0.195 +30° 34' 01.70" 1.000E-01 0.500 F 0.240 -0.784 19.3 V 0.70 -0.15 o 691 1.63 Yes Yes
2016UP41 O C H 2016-11-25.27541 1.000E-05 02:35:54.670 1.500E-01 0.500 F -0.358 0.085 +20° 02' 31.30" 1.000E-01 0.500 F 0.309 -0.037 20.5 V 0.70 -0.04 o 691 0.19 Yes Yes
2006UM O C 2016-11-25.27541 1.000E-05 02:37:51.050 1.500E-01 0.500 F -0.358 -0.200 +19° 45' 12.60" 1.000E-01 0.500 F 0.309 -0.037 16.8 V 0.70 0.38 o 691 0.41 Yes Yes
2016LY47 O C H 2016-11-25.27803 1.000E-05 01:50:58.820 1.500E-01 0.500 F -0.229 -0.178 +16° 00' 00.50" 1.000E-01 0.500 F 0.256 -0.501 21.3 V 0.70 0.15 o 691 1.07 Yes Yes
2016WG1 O C m 2016-11-25.28164 1.000E-05 02:03:30.580 1.500E-01 0.500 F -0.161 -0.111 +26° 22' 13.10" 1.000E-01 0.500 F 0.241 -0.066 o 691 0.27 Yes No
2016UN36 O C H 2016-11-25.28474 1.000E-05 02:07:14.310 1.500E-01 0.500 F -0.168 0.340 +30° 34' 08.60" 1.000E-01 0.500 F 0.240 -0.491 19.4 V 0.70 -0.05 o 691 1.20 Yes Yes
2016UP41 O C H 2016-11-25.28719 1.000E-05 02:35:53.050 1.500E-01 0.500 F -0.358 0.321 +20° 02' 13.00" 1.000E-01 0.500 F 0.309 0.310 20.6 V 0.70 0.06 o 691 0.91 Yes Yes
2006UM O C 2016-11-25.28719 1.000E-05 02:37:48.630 1.500E-01 0.500 F -0.358 -0.504 +19° 46' 04.10" 1.000E-01 0.500 F 0.309 0.290 16.9 V 0.70 0.48 o 691 1.17 Yes Yes
2016WT9 O C H 2016-11-25.29431 1.000E-05 02:45:00.330 1.500E-01 0.500 F -0.063 0.502 +29° 53' 27.60" 1.000E-01 0.500 F 0.256 -0.467 22.4 V 0.70 0.80 o 691 1.39 Yes Yes
2016VV1 O C H 2016-11-25.29792 1.000E-05 02:55:38.490 1.500E-01 0.500 F -0.108 -0.183 +27° 01' 01.50" 1.000E-01 0.500 F 0.244 0.116 o 691 0.52 Yes No
2016WT9 O C H 2016-11-25.30546 1.000E-05 02:44:59.130 1.500E-01 0.500 F -0.063 0.422 +29° 53' 05.20" 1.000E-01 0.500 F 0.256 -0.514 21.3 V 0.70 -0.30 o 691 1.35 Yes Yes
2016VV1 O C H 2016-11-25.30910 1.000E-05 02:55:37.280 1.500E-01 0.500 F -0.108 -0.240 +27° 01' 33.00" 1.000E-01 0.500 F 0.244 0.510 21.3 V 0.70 -0.07 o 691 1.35 Yes Yes
2016WT9 O C H 2016-11-25.31657 1.000E-05 02:44:57.850 1.500E-01 0.500 F -0.063 -0.775 +29° 52' 41.50" 1.000E-01 0.500 F 0.256 -1.922 o 691 4.10 No No
2016VV1 O C H 2016-11-25.32019 1.000E-05 02:55:36.140 1.500E-01 0.500 F -0.108 0.435 +27° 02' 02.30" 1.000E-01 0.500 F 0.244 -0.949 o 691 2.51 Yes No
2016WQ O C H 2016-11-25.32777 1.000E-05 02:55:54.720 1.500E-01 0.500 F -0.349 0.526 +12° 24' 07.90" 1.000E-01 0.500 F 0.276 0.194 19.8 V 0.70 0.17 o 691 1.16 Yes Yes
2016WO1 O C H 2016-11-25.32967 1.000E-05 02:57:58.760 1.500E-01 0.500 F -0.172 -0.296 +14° 11' 59.70" 1.000E-01 0.500 F 0.319 -0.238 20.3 V 0.70 0.39 o 691 0.76 Yes Yes
2016WQ O C H 2016-11-25.33663 1.000E-05 02:55:52.310 1.500E-01 0.500 F -0.349 0.426 +12° 22' 35.30" 1.000E-01 0.500 F 0.276 -0.191 19.8 V 0.70 0.17 o 691 0.96 Yes Yes
2016WO1 O C H 2016-11-25.33858 1.000E-05 02:57:57.270 1.500E-01 0.500 F -0.172 0.128 +14° 12' 06.90" 1.000E-01 0.500 F 0.319 -0.385 20.4 V 0.70 0.49 o 691 0.81 Yes Yes
2016WQ O C H 2016-11-25.34553 1.000E-05 02:55:49.900 1.500E-01 0.500 F -0.349 0.306 +12° 21' 01.60" 1.000E-01 0.500 F 0.276 -0.859 o 691 1.93 Yes No
2016WO1 O C H 2016-11-25.34749 1.000E-05 02:57:55.720 1.500E-01 0.500 F -0.172 -0.342 +14° 12' 14.20" 1.000E-01 0.500 F 0.319 -0.424 20.1 V 0.70 0.19 o 691 1.10 Yes Yes
2016VQ1 O C H 2016-11-25.35102 1.000E-05 03:15:29.540 1.500E-01 0.500 F -0.239 -0.561 +12° 50' 13.80" 1.000E-01 0.500 F 0.317 -0.410 21.7 V 0.70 -0.17 o 691 1.41 Yes Yes
2016VQ1 O C H 2016-11-25.35835 1.000E-05 03:15:29.220 1.500E-01 0.500 F -0.239 0.216 +12° 50' 12.60" 1.000E-01 0.500 F 0.317 1.228 21.7 V 0.70 -0.17 o 691 2.53 Yes Yes
2016VQ1 O C H 2016-11-25.36567 1.000E-05 03:15:28.810 1.500E-01 0.500 F -0.239 -0.342 +12° 50' 08.20" 1.000E-01 0.500 F 0.317 -0.334 21.8 V 0.70 -0.08 o 691 0.97 Yes Yes
2016WS3 O C H 2016-11-25.42906 1.000E-05 04:15:23.080 1.500E-01 0.500 F -0.241 0.053 +10° 20' 10.50" 1.000E-01 0.500 F 0.182 -0.332 20.9 V 0.70 0.42 o 691 0.68 Yes Yes
2016WS3 O C H 2016-11-25.43823 1.000E-05 04:15:21.410 1.500E-01 0.500 F -0.241 0.832 +10° 20' 38.10" 1.000E-01 0.500 F 0.182 -0.986 21.1 V 0.70 0.62 o 691 2.62 Yes Yes
2016WS3 O C H 2016-11-25.44746 1.000E-05 04:15:19.610 1.500E-01 0.500 F -0.241 -0.204 +10° 21' 07.40" 1.000E-01 0.500 F 0.182 -0.108 21.2 V 0.70 0.72 o 691 0.47 Yes Yes
2016VX5 O C H 2016-11-25.49195 1.000E-05 05:39:35.810 1.500E-01 0.500 F -0.209 -0.170 +13° 54' 33.80" 1.000E-01 0.500 F 0.139 0.548 20.8 V 0.70 0.21 o 691 1.24 Yes Yes
2016VX5 O C H 2016-11-25.50266 1.000E-05 05:39:35.250 1.500E-01 0.500 F -0.209 0.183 +13° 53' 35.50" 1.000E-01 0.500 F 0.139 -0.023 20.8 V 0.70 0.21 o 691 0.40 Yes Yes
2016VX5 O C H 2016-11-25.51344 1.000E-05 05:39:34.640 1.500E-01 0.500 F -0.209 -0.219 +13° 52' 36.90" 1.000E-01 0.500 F 0.139 -0.510 21.2 V 0.70 0.61 o 691 1.19 Yes Yes
2012KJ11 O C H 2016-11-26.07315 1.000E-05 20:12:41.320 1.500E-01 0.500 F -0.004 0.463 +00° 20' 15.50" 1.000E-01 0.500 F 0.084 -0.286 19.4 V 0.70 0.28 o 691 1.09 Yes Yes
2004SB56 O C H 2016-11-26.07659 1.000E-05 20:34:42.150 1.500E-01 0.500 F -0.017 0.335 +11° 37' 16.60" 1.000E-01 0.500 F 0.301 -1.113 20.7 V 0.70 -0.09 o 691 2.39 Yes Yes
2012KJ11 O C H 2016-11-26.08122 1.000E-05 20:12:43.320 1.500E-01 0.500 F -0.004 0.152 +00° 20' 38.30" 1.000E-01 0.500 F 0.084 -0.346 19.1 V 0.70 -0.02 o 691 0.77 Yes Yes
2004SB56 O C H 2016-11-26.08463 1.000E-05 20:34:43.360 1.500E-01 0.500 F -0.017 -0.237 +11° 37' 19.80" 1.000E-01 0.500 F 0.301 -0.847 o 691 1.78 Yes No
2012KJ11 O C H 2016-11-26.08928 1.000E-05 20:12:45.330 1.500E-01 0.500 F -0.004 0.020 +00° 21' 00.90" 1.000E-01 0.500 F 0.084 -0.574 19.2 V 0.70 0.08 o 691 1.18 Yes Yes
2004SB56 O C H 2016-11-26.09267 1.000E-05 20:34:44.610 1.500E-01 0.500 F -0.017 -0.238 +11° 37' 23.50" 1.000E-01 0.500 F 0.301 -0.076 21.2 V 0.70 0.41 o 691 0.50 Yes Yes
2016WJ8 O C H 2016-11-26.09507 1.000E-05 21:47:51.930 1.500E-01 0.500 F -0.013 -0.955 +14° 12' 41.90" 1.000E-01 0.500 F 0.287 0.283 20.9 V 0.70 0.24 o 691 2.00 Yes Yes
2007CA19 O C H 2016-11-26.09816 1.000E-05 22:22:32.030 1.500E-01 0.500 F -0.161 0.091 -18° 15' 22.90" 1.000E-01 0.500 F 0.153 -0.301 19.8 V 0.70 0.13 o 691 0.63 Yes Yes
2016WJ8 O C H 2016-11-26.10105 1.000E-05 21:47:53.470 1.500E-01 0.500 F -0.013 0.083 +14° 12' 42.20" 1.000E-01 0.500 F 0.287 -0.326 o 691 0.68 Yes No
2007CA19 O C H 2016-11-26.10411 1.000E-05 22:22:33.900 1.500E-01 0.500 F -0.161 0.051 -18° 15' 13.60" 1.000E-01 0.500 F 0.153 -0.189 19.9 V 0.70 0.23 o 691 0.39 Yes Yes
2016WJ8 O C H 2016-11-26.10699 1.000E-05 21:47:55.010 1.500E-01 0.500 F -0.013 1.262 +14° 12' 42.80" 1.000E-01 0.500 F 0.287 -0.626 20.9 V 0.70 0.24 o 691 2.83 Yes Yes
2007CA19 O C H 2016-11-26.11002 1.000E-05 22:22:35.760 1.500E-01 0.500 F -0.161 0.050 -18° 15' 04.20" 1.000E-01 0.500 F 0.153 0.082 o 691 0.19 Yes No
2012UA34 O C H 2016-11-26.11529 1.000E-05 23:06:39.400 1.500E-01 0.500 F -0.152 -0.021 +19° 42' 17.40" 1.000E-01 0.500 F 0.234 -0.187 20.9 V 0.70 0.44 o 691 0.38 Yes Yes
2012UA34 O C H 2016-11-26.12403 1.000E-05 23:06:40.520 1.500E-01 0.500 F -0.152 0.928 +19° 42' 12.20" 1.000E-01 0.500 F 0.234 -0.091 20.9 V 0.70 0.44 o 691 1.87 Yes Yes
2012UA34 O C H 2016-11-26.13277 1.000E-05 23:06:41.600 1.500E-01 0.500 F -0.152 1.307 +19° 42' 06.60" 1.000E-01 0.500 F 0.234 -0.382 21.3 V 0.70 0.84 o 691 2.74 Yes Yes
2016LX48 O C H 2016-11-26.28350 1.000E-05 01:52:26.040 1.500E-01 0.500 F -0.134 0.740 +26° 37' 33.10" 1.000E-01 0.500 F 0.292 0.191 20.6 V 0.70 0.39 o 691 1.53 Yes Yes
2016LX48 O C H 2016-11-26.29115 1.000E-05 01:52:26.470 1.500E-01 0.500 F -0.134 1.879 +26° 37' 28.50" 1.000E-01 0.500 F 0.292 -0.400 21.1 V 0.70 0.89 o 691 3.84 No Yes
2016LX48 O C H 2016-11-26.29879 1.000E-05 01:52:26.660 1.500E-01 0.500 F -0.134 -0.209 +26° 37' 25.00" 1.000E-01 0.500 F 0.292 0.115 20.7 V 0.70 0.49 o 691 0.48 Yes Yes
2007VM184 O C H 2016-11-26.33425 1.000E-05 03:10:16.250 1.500E-01 0.500 F -0.156 -0.666 +03° 00' 30.00" 1.000E-01 0.500 F 0.192 0.167 17.8 V 0.70 0.38 o 691 1.41 Yes Yes
2016VL3 O C H 2016-11-26.34324 1.000E-05 03:55:08.690 1.500E-01 0.500 F -0.192 0.561 +23° 21' 33.30" 1.000E-01 0.500 F 0.265 -0.945 o 691 2.23 Yes No
2007VM184 O C H 2016-11-26.34519 1.000E-05 03:10:06.230 1.500E-01 0.500 F -0.156 0.515 +03° 01' 18.90" 1.000E-01 0.500 F 0.192 -0.274 18.4 V 0.70 0.98 o 691 1.20 Yes Yes
2016VL3 O C H 2016-11-26.35422 1.000E-05 03:55:08.340 1.500E-01 0.500 F -0.192 0.866 +23° 21' 46.10" 1.000E-01 0.500 F 0.265 -0.668 o 691 2.21 Yes No
2007VM184 O C H 2016-11-26.35615 1.000E-05 03:09:56.130 1.500E-01 0.500 F -0.156 0.844 +03° 02' 08.40" 1.000E-01 0.500 F 0.192 -0.267 18.3 V 0.70 0.88 o 691 1.82 Yes Yes
2016VL3 O C H 2016-11-26.36517 1.000E-05 03:55:08.020 1.500E-01 0.500 F -0.192 1.451 +23° 21' 58.80" 1.000E-01 0.500 F 0.265 -0.344 o 691 3.01 Yes No
2016NV O C H 2016-12-01.07477 1.000E-05 21:28:29.960 1.500E-01 0.500 F -0.043 -1.278 +08° 24' 27.90" 1.000E-01 0.500 F 0.276 0.086 19.7 V 0.70 -0.20 o 691 2.57 Yes Yes
2016NV O C H 2016-12-01.08227 1.000E-05 21:28:32.740 1.500E-01 0.500 F -0.043 0.132 +08° 24' 17.00" 1.000E-01 0.500 F 0.276 -0.073 20.2 V 0.70 0.30 o 691 0.30 Yes Yes
2016NV O C H 2016-12-01.08977 1.000E-05 21:28:35.210 1.500E-01 0.500 F -0.043 -3.093 +08° 24' 06.80" 1.000E-01 0.500 F 0.276 0.479 20.1 V 0.70 0.20 o 691 6.23 No Yes
2007CA19 O C H 2016-12-01.10269 1.000E-05 22:46:57.960 1.500E-01 0.500 F -0.171 0.077 -16° 09' 57.00" 1.000E-01 0.500 F 0.228 -0.019 20.0 V 0.70 0.11 o 691 0.16 Yes Yes
2007CA19 O C H 2016-12-01.11020 1.000E-05 22:46:59.960 1.500E-01 0.500 F -0.171 0.111 -16° 09' 45.30" 1.000E-01 0.500 F 0.228 0.678 19.9 V 0.70 0.01 o 691 1.38 Yes Yes
2007CA19 O C H 2016-12-01.11808 1.000E-05 22:47:02.010 1.500E-01 0.500 F -0.171 -0.551 -16° 09' 34.10" 1.000E-01 0.500 F 0.228 0.328 20.3 V 0.70 0.41 o 691 1.29 Yes Yes
1999AQ10 O C 2016-12-01.12199 1.000E-05 23:12:50.180 1.500E-01 0.500 F -0.053 -0.064 +23° 52' 30.80" 1.000E-01 0.500 F 0.268 0.068 19.9 V 0.70 -0.08 o 691 0.19 Yes Yes
Phaethon O C 2016-12-01.12199 1.000E-05 23:11:49.660 1.500E-01 0.500 F -0.063 -0.003 +24° 30' 01.70" 1.000E-01 0.500 F 0.305 0.039 17.4 V 0.70 0.07 o 691 0.08 Yes Yes
2012UA34 O C H 2016-12-01.12427 1.000E-05 23:16:32.400 1.500E-01 0.500 F -0.141 0.339 +19° 01' 20.90" 1.000E-01 0.500 F 0.363 -0.637 o 691 1.45 Yes No
2004QD14 O C 2016-12-01.12744 1.000E-05 23:29:15.620 1.500E-01 0.500 F -0.231 -0.162 -12° 26' 41.80" 1.000E-01 0.500 F 0.353 0.027 20.4 V 0.70 -0.04 o 691 0.33 Yes Yes
1999AQ10 O C 2016-12-01.13055 1.000E-05 23:12:52.090 1.500E-01 0.500 F -0.053 -0.138 +23° 52' 29.30" 1.000E-01 0.500 F 0.268 0.251 20.1 V 0.70 0.12 o 691 0.57 Yes Yes
Phaethon O C 2016-12-01.13055 1.000E-05 23:11:50.280 1.500E-01 0.500 F -0.063 -0.197 +24° 29' 52.70" 1.000E-01 0.500 F 0.305 -0.034 17.5 V 0.70 0.17 o 691 0.40 Yes Yes
2012UA34 O C H 2016-12-01.13283 1.000E-05 23:16:33.290 1.500E-01 0.500 F -0.141 0.181 +19° 01' 17.90" 1.000E-01 0.500 F 0.363 -0.219 20.9 V 0.70 0.08 o 691 0.57 Yes Yes
2004QD14 O C 2016-12-01.13568 1.000E-05 23:29:15.010 1.500E-01 0.500 F -0.231 -0.444 -12° 26' 33.00" 1.000E-01 0.500 F 0.353 0.186 20.5 V 0.70 0.06 o 691 0.97 Yes Yes
Phaethon O C 2016-12-01.13879 1.000E-05 23:11:50.900 1.500E-01 0.500 F -0.063 -0.073 +24° 29' 44.10" 1.000E-01 0.500 F 0.305 -0.036 17.6 V 0.70 0.27 o 691 0.16 Yes Yes
1999AQ10 O C 2016-12-01.13879 1.000E-05 23:12:53.920 1.500E-01 0.500 F -0.053 -0.345 +23° 52' 27.40" 1.000E-01 0.500 F 0.268 0.000 20.0 V 0.70 0.02 o 691 0.69 Yes Yes
2012UA34 O C H 2016-12-01.14110 1.000E-05 23:16:34.150 1.500E-01 0.500 F -0.141 0.022 +19° 01' 14.70" 1.000E-01 0.500 F 0.363 -0.107 20.8 V 0.70 -0.02 o 691 0.22 Yes Yes
2004QD14 O C 2016-12-01.14395 1.000E-05 23:29:14.450 1.500E-01 0.500 F -0.231 0.016 -12° 26' 24.50" 1.000E-01 0.500 F 0.353 -0.001 20.7 V 0.70 0.26 o 691 0.03 Yes Yes
2003WR21 O C 2016-12-01.18034 1.000E-05 01:49:30.720 1.500E-01 0.500 F -0.161 -0.251 -04° 34' 25.50" 1.000E-01 0.500 F 0.063 0.001 19.3 V 0.70 -0.20 o 691 0.50 Yes Yes
2003WR21 O C 2016-12-01.18382 1.000E-05 01:49:30.310 1.500E-01 0.500 F -0.161 -0.146 -04° 34' 22.40" 1.000E-01 0.500 F 0.063 -0.016 19.3 V 0.70 -0.20 o 691 0.29 Yes Yes
2003WR21 O C 2016-12-01.18731 1.000E-05 01:49:29.910 1.500E-01 0.500 F -0.161 0.126 -04° 34' 19.30" 1.000E-01 0.500 F 0.063 -0.042 19.3 V 0.70 -0.20 o 691 0.27 Yes Yes
2012YH7 O C H 2016-12-01.19083 1.000E-05 03:44:23.580 1.500E-01 0.500 F -0.258 -0.490 -20° 24' 28.00" 1.000E-01 0.500 F -0.063 -0.219 20.8 V 0.70 0.67 o 691 1.17 Yes Yes
2012YH7 O C H 2016-12-01.19768 1.000E-05 03:44:23.110 1.500E-01 0.500 F -0.258 0.726 -20° 24' 03.80" 1.000E-01 0.500 F -0.063 -0.321 20.7 V 0.70 0.57 o 691 1.67 Yes Yes
2012YH7 O C H 2016-12-01.20461 1.000E-05 03:44:22.480 1.500E-01 0.500 F -0.258 -0.206 -20° 23' 38.40" 1.000E-01 0.500 F -0.063 0.485 20.8 V 0.70 0.67 o 691 1.24 Yes Yes
2012WK4 O C 2016-12-01.21237 1.000E-05 04:38:33.220 1.500E-01 0.500 F -0.156 -0.807 +02° 58' 43.60" 1.000E-01 0.500 F 0.116 0.041 20.6 V 0.70 0.46 o 691 1.63 Yes Yes
2012UK171 O C 2016-12-01.21508 1.000E-05 03:21:38.760 1.500E-01 0.500 F -0.309 -0.777 +19° 35' 22.50" 1.000E-01 0.500 F 0.337 -0.251 19.8 V 0.70 0.36 o 691 1.64 Yes Yes
2012WK4 O C 2016-12-01.21949 1.000E-05 04:38:31.950 1.500E-01 0.500 F -0.156 -1.880 +02° 58' 47.60" 1.000E-01 0.500 F 0.116 -0.585 20.1 V 0.70 -0.04 o 691 3.90 No Yes
2012UK171 O C 2016-12-01.22220 1.000E-05 03:21:34.930 1.500E-01 0.500 F -0.309 -0.620 +19° 35' 01.60" 1.000E-01 0.500 F 0.337 -0.299 19.6 V 0.70 0.15 o 691 1.38 Yes Yes
2012WK4 O C 2016-12-01.22664 1.000E-05 04:38:30.850 1.500E-01 0.500 F -0.156 -0.307 +02° 58' 53.30" 1.000E-01 0.500 F 0.116 0.471 20.5 V 0.70 0.36 o 691 1.13 Yes Yes
2012UK171 O C 2016-12-01.22935 1.000E-05 03:21:31.090 1.500E-01 0.500 F -0.309 -0.349 +19° 34' 40.60" 1.000E-01 0.500 F 0.337 -0.285 19.6 V 0.70 0.15 o 691 0.91 Yes Yes
2012SA22 O C 2016-12-01.38583 1.000E-05 07:47:36.190 1.500E-01 0.500 F -0.008 -0.097 +18° 21' 14.00" 1.000E-01 0.500 F 0.311 -0.079 19.2 V 0.70 -0.26 o 691 0.25 Yes Yes
2012SA22 O C 2016-12-01.40437 1.000E-05 07:47:34.520 1.500E-01 0.500 F -0.008 -0.303 +18° 20' 30.90" 1.000E-01 0.500 F 0.311 -0.159 19.3 V 0.70 -0.16 o 691 0.69 Yes Yes
2012SA22 O C 2016-12-01.42291 1.000E-05 07:47:32.820 1.500E-01 0.500 F -0.008 -0.887 +18° 19' 46.60" 1.000E-01 0.500 F 0.311 -1.391 19.0 V 0.70 -0.46 o 691 3.29 No Yes
Phaethon O C 2016-12-02.09191 1.000E-05 23:13:04.200 1.500E-01 0.500 F -0.063 -1.366 +24° 13' 34.20" 1.000E-01 0.500 F 0.305 0.025 17.1 V 0.70 -0.28 o 691 2.73 Yes Yes
1999AQ10 O C 2016-12-02.09191 1.000E-05 23:16:37.080 1.500E-01 0.500 F -0.053 -0.619 +23° 49' 39.00" 1.000E-01 0.500 F 0.268 -0.174 20.1 V 0.70 0.09 o 691 1.29 Yes Yes
2004QD14 O C H 2016-12-02.09501 1.000E-05 23:28:18.190 1.500E-01 0.500 F -0.231 0.468 -12° 09' 51.80" 1.000E-01 0.500 F 0.353 -0.642 o 691 1.60 Yes No
2016SH45 O C 2016-12-02.09731 1.000E-05 23:59:33.550 1.500E-01 0.500 F -0.093 0.024 -18° 40' 16.00" 1.000E-01 0.500 F 0.099 0.361 20.2 V 0.70 -0.13 o 691 0.73 Yes Yes
1999AQ10 O C 2016-12-02.10049 1.000E-05 23:16:39.020 1.500E-01 0.500 F -0.053 0.122 +23° 49' 37.30" 1.000E-01 0.500 F 0.268 -0.313 20.9 V 0.70 0.89 o 691 0.67 Yes Yes
Phaethon O C 2016-12-02.10049 1.000E-05 23:13:04.930 1.500E-01 0.500 F -0.063 -0.080 +24° 13' 25.60" 1.000E-01 0.500 F 0.305 0.000 17.6 V 0.70 0.22 o 691 0.16 Yes Yes
2004QD14 O C H 2016-12-02.10366 1.000E-05 23:28:17.540 1.500E-01 0.500 F -0.231 -0.404 -12° 09' 42.00" 1.000E-01 0.500 F 0.353 0.074 20.7 V 0.70 0.23 o 691 0.83 Yes Yes
2016SH45 O C 2016-12-02.10596 1.000E-05 23:59:35.530 1.500E-01 0.500 F -0.093 -0.813 -18° 39' 53.90" 1.000E-01 0.500 F 0.099 0.223 20.1 V 0.70 -0.23 o 691 1.70 Yes Yes
1999AQ10 O C 2016-12-02.10920 1.000E-05 23:16:40.930 1.500E-01 0.500 F -0.053 0.055 +23° 49' 36.00" 1.000E-01 0.500 F 0.268 0.002 20.0 V 0.70 -0.01 o 691 0.11 Yes Yes
Phaethon O C 2016-12-02.10920 1.000E-05 23:13:05.570 1.500E-01 0.500 F -0.063 -0.160 +24° 13' 16.90" 1.000E-01 0.500 F 0.305 0.009 17.6 V 0.70 0.22 o 691 0.32 Yes Yes
2004QD14 O C H 2016-12-02.11240 1.000E-05 23:28:16.930 1.500E-01 0.500 F -0.231 -0.611 -12° 09' 33.00" 1.000E-01 0.500 F 0.353 -0.120 20.5 V 0.70 0.03 o 691 1.25 Yes Yes
2016SH45 O C 2016-12-02.11467 1.000E-05 23:59:37.590 1.500E-01 0.500 F -0.093 -0.712 -18° 39' 31.50" 1.000E-01 0.500 F 0.099 0.217 20.6 V 0.70 0.27 o 691 1.50 Yes Yes
2003WR21 O C 2016-12-02.11810 1.000E-05 01:47:48.290 1.500E-01 0.500 F -0.317 -0.297 -04° 20' 12.60" 1.000E-01 0.500 F 0.090 0.003 19.7 V 0.70 0.17 o 691 0.60 Yes Yes
2003WR21 O C 2016-12-02.12530 1.000E-05 01:47:47.480 1.500E-01 0.500 F -0.317 -0.073 -04° 20' 06.20" 1.000E-01 0.500 F 0.090 -0.213 19.7 V 0.70 0.17 o 691 0.45 Yes Yes
2003WR21 O C 2016-12-02.13253 1.000E-05 01:47:46.700 1.500E-01 0.500 F -0.317 0.662 -04° 19' 59.40" 1.000E-01 0.500 F 0.090 -0.061 19.6 V 0.70 0.07 o 691 1.34 Yes Yes
2007CA19 O C H 2016-12-04.06237 1.000E-05 22:59:39.400 1.500E-01 0.500 F -0.181 0.521 -14° 59' 15.60" 1.000E-01 0.500 F 0.260 -0.439 o 691 1.37 Yes No
2007CA19 O C H 2016-12-04.06465 1.000E-05 22:59:39.910 1.500E-01 0.500 F -0.181 -0.098 -14° 59' 12.80" 1.000E-01 0.500 F 0.260 -0.840 o 691 1.70 Yes No
2007CA19 O C H 2016-12-04.06698 1.000E-05 22:59:40.460 1.500E-01 0.500 F -0.181 -0.311 -14° 59' 09.10" 1.000E-01 0.500 F 0.260 -0.412 o 691 1.04 Yes No
2012UA34 O C 2016-12-04.08606 1.000E-05 23:21:51.840 1.500E-01 0.500 F -0.127 -0.262 +18° 44' 26.20" 1.000E-01 0.500 F 0.335 0.233 20.6 V 0.70 -0.41 o 691 0.70 Yes Yes
2012UA34 O C 2016-12-04.08973 1.000E-05 23:21:52.230 1.500E-01 0.500 F -0.127 0.096 +18° 44' 24.50" 1.000E-01 0.500 F 0.335 -0.375 20.7 V 0.70 -0.31 o 691 0.78 Yes Yes
2012UA34 O C 2016-12-04.09341 1.000E-05 23:21:52.560 1.500E-01 0.500 F -0.127 -0.412 +18° 44' 23.60" 1.000E-01 0.500 F 0.335 -0.177 20.6 V 0.70 -0.41 o 691 0.90 Yes Yes
1999AQ10 O C 2016-12-04.10184 1.000E-05 23:24:15.500 1.500E-01 0.500 F -0.096 0.058 +23° 43' 51.20" 1.000E-01 0.500 F 0.123 -0.065 20.2 V 0.70 0.11 o 691 0.17 Yes Yes
1999AQ10 O C 2016-12-04.10448 1.000E-05 23:24:16.040 1.500E-01 0.500 F -0.096 -0.253 +23° 43' 50.60" 1.000E-01 0.500 F 0.123 -0.196 20.4 V 0.70 0.31 o 691 0.64 Yes Yes
1999AQ10 O C 2016-12-04.10714 1.000E-05 23:24:16.590 1.500E-01 0.500 F -0.096 -0.486 +23° 43' 50.30" 1.000E-01 0.500 F 0.123 -0.020 20.8 V 0.70 0.71 o 691 0.97 Yes Yes
2016WB2 O C 2016-12-04.13475 1.000E-05 01:36:06.860 1.500E-01 0.500 F -0.346 -0.510 +18° 34' 52.40" 1.000E-01 0.500 F 0.277 0.128 21.3 V 0.70 -0.04 o 691 1.06 Yes Yes
2003WR21 O C 2016-12-04.13981 1.000E-05 01:44:20.980 1.500E-01 0.500 F -0.296 -0.093 -03° 48' 13.60" 1.000E-01 0.500 F 0.129 -0.117 19.5 V 0.70 -0.09 o 691 0.30 Yes Yes
2016WB2 O C 2016-12-04.14301 1.000E-05 01:36:06.150 1.500E-01 0.500 F -0.346 -0.951 +18° 34' 57.90" 1.000E-01 0.500 F 0.277 0.422 21.2 V 0.70 -0.14 o 691 2.09 Yes Yes
2003WR21 O C 2016-12-04.14807 1.000E-05 01:44:20.110 1.500E-01 0.500 F -0.296 -0.133 -03° 48' 05.60" 1.000E-01 0.500 F 0.129 -0.159 19.5 V 0.70 -0.09 o 691 0.42 Yes Yes
2016WB2 O C 2016-12-04.15124 1.000E-05 01:36:05.550 1.500E-01 0.500 F -0.346 0.140 +18° 35' 02.90" 1.000E-01 0.500 F 0.277 0.242 21.2 V 0.70 -0.14 o 691 0.56 Yes Yes
2003WR21 O C 2016-12-04.15630 1.000E-05 01:44:19.240 1.500E-01 0.500 F -0.296 -0.216 -03° 47' 57.50" 1.000E-01 0.500 F 0.129 -0.076 19.4 V 0.70 -0.19 o 691 0.46 Yes Yes
2016LX48 O C 2016-12-04.20648 1.000E-05 01:59:28.390 1.500E-01 0.500 F -0.179 -0.246 +25° 39' 22.10" 1.000E-01 0.500 F 0.243 -0.042 20.3 V 0.70 -0.42 o 691 0.50 Yes Yes
2016LX48 O C 2016-12-04.21853 1.000E-05 01:59:29.010 1.500E-01 0.500 F -0.179 -0.290 +25° 39' 17.50" 1.000E-01 0.500 F 0.243 -0.062 20.3 V 0.70 -0.42 o 691 0.59 Yes Yes
2016LX48 O C 2016-12-04.23046 1.000E-05 01:59:29.640 1.500E-01 0.500 F -0.179 -0.126 +25° 39' 13.00" 1.000E-01 0.500 F 0.243 -0.004 20.5 V 0.70 -0.22 o 691 0.25 Yes Yes
2010XX72 O C 2016-12-04.25563 1.000E-05 02:46:27.640 1.500E-01 0.500 F -0.069 -0.118 +30° 46' 20.30" 1.000E-01 0.500 F 0.282 -0.054 20.0 V 0.70 0.12 o 691 0.27 Yes Yes
2012UK171 O C 2016-12-04.25849 1.000E-05 02:58:41.840 1.500E-01 0.500 F -0.235 -0.722 +17° 08' 09.30" 1.000E-01 0.500 F 0.300 -0.042 19.8 V 0.70 -0.04 o 691 1.45 Yes Yes
2016WX8 O C 2016-12-04.26134 1.000E-05 03:10:31.370 1.500E-01 0.500 F -0.183 -0.314 +26° 02' 39.50" 1.000E-01 0.500 F 0.269 0.126 20.9 V 0.70 -0.04 o 691 0.69 Yes Yes
2010XX72 O C 2016-12-04.26451 1.000E-05 02:46:25.660 1.500E-01 0.500 F -0.069 -0.154 +30° 45' 56.30" 1.000E-01 0.500 F 0.282 -0.092 19.8 V 0.70 -0.08 o 691 0.37 Yes Yes
2012UK171 O C 2016-12-04.26722 1.000E-05 02:58:37.900 1.500E-01 0.500 F -0.235 0.007 +17° 07' 44.50" 1.000E-01 0.500 F 0.300 -0.090 19.4 V 0.70 -0.44 o 691 0.18 Yes Yes

[1-200] [201-400] [401-600] [601-800] [801-1000] [1001-1200] [1201-1400] [1401-1600] [1601-1800] [1801-2000] [2001-2200] [2201-2400] [2401-2600] [2601-2800] [2801-3000] [3001-3200] [3201-3400] [3401-3600] [3601-3800] [3801-4000] [4001-4200] [4201-4400] [4401-4600] [4601-4800] [4801-5000] [5001-5200] [5201-5400] [5401-5600] [5601-5800] [5801-6000] [6001-6200] [6201-6400] [6401-6600] [6601-6800] [6801-7000] [7001-7200] [7201-7400] [7401-7600] [7601-7800] [7801-8000] [8001-8200] [8201-8400] [8401-8600] [8601-8800] [8801-9000] [9001-9200] [9201-9400] [9401-9600] [9601-9800] [9801-10000] [10001-10200] [10201-10400] [10401-10600] [10601-10800] [10801-11000] [11001-11200] [11201-11400] [11401-11600] [11601-11800] [11801-12000] [12001-12200] [12201-12400] [12401-12600] [12601-12800] [12801-13000] [13001-13200] [13201-13400] [13401-13600] [13601-13800] [13801-14000] [14001-14200] [14201-14400] [14401-14600] [14601-14800] [14801-15000] [15001-15200] [15201-15400] [15401-15600] [15601-15800] [15801-16000] [16001-16200] [16201-16400] [16401-16600] [16601-16800] [16801-17000] [17001-17200] [17201-17400] [17401-17600] [17601-17800] [17801-18000] [18001-18200] [18201-18400] [18401-18600] [18601-18800] [18801-19000] [19001-19200] [19201-19400] [19401-19600] [19601-19800] [19801-20000] [20001-20200] [20201-20400] [20401-20600] [20601-20800] [20801-21000] [21001-21200] [21201-21400] [21401-21600] [21601-21800] [21801-22000] [22001-22200] [22201-22400] [22401-22600] [22601-22800] [22801-23000] [23001-23200] [23201-23400] [23401-23600] [23601-23800] [23801-24000] [24001-24200] [24201-24400] [24401-24600] [24601-24800] [24801-25000] [25001-25200] [25201-25400] [25401-25600] [25601-25800] [25801-26000] [26001-26200] [26201-26400] [26401-26600] [26601-26800] [26801-27000] [27001-27200] [27201-27400] [27401-27600] [27601-27800] [27801-28000] [28001-28200] [28201-28400] [28401-28600] [28601-28800] [28801-29000] [29001-29200] [29201-29400] [29401-29600] [29601-29800] [29801-30000] [30001-30200] [30201-30400] [30401-30600] [30601-30800] [30801-31000] [31001-31200] [31201-31400] [31401-31600] [31601-31800] [31801-32000] [32001-32200] [32201-32400] [32401-32600] [32601-32800] [32801-33000] [33001-33200] [33201-33400] [33401-33600] [33601-33800] [33801-34000] [34001-34200] [34201-34400] [34401-34600] [34601-34800] [34801-35000] [35001-35200] [35201-35400] [35401-35600] [35601-35800] [35801-36000] [36001-36200] [36201-36400] [36401-36600] [36601-36800] [36801-37000] [37001-37200] [37201-37400] [37401-37600] [37601-37800] [37801-38000] [38001-38200] [38201-38400] [38401-38600] [38601-38800] [38801-39000] [39001-39200] [39201-39400] [39401-39600] [39601-39800] [39801-40000] [40001-40200] [40201-40400] [40401-40600] [40601-40800] [40801-41000] [41001-41200] [41201-41400] [41401-41600] [41601-41800] [41801-42000] [42001-42200] [42201-42400] [42401-42600] [42601-42800] [42801-43000] [43001-43200] [43201-43400] [43401-43600] [43601-43800] [43801-44000] [44001-44200] [44201-44400] [44401-44600] [44601-44800] [44801-45000] [45001-45200] [45201-45400] [45401-45600] [45601-45800] [45801-46000] [46001-46200] [46201-46400] [46401-46600] [46601-46800] [46801-47000] [47001-47200] [47201-47400] [47401-47600] [47601-47800] [47801-48000] [48001-48200] [48201-48400] [48401-48600] [48601-48800] [48801-49000] [49001-49200] [49201-49400] [49401-49600] [49601-49800] [49801-50000] [50001-50200] [50201-50400] [50401-50600] [50601-50741]